sensor_id;sensor_type;location;lat;lon;timestamp;temperature;humidity
5870;DHT22;2961;47.702;9.410;2023-12-07T00:01:34;1.00;99.90
5870;DHT22;2961;47.702;9.410;2023-12-07T00:04:01;1.10;99.90
5870;DHT22;2961;47.702;9.410;2023-12-07T00:06:29;1.10;99.90
5870;DHT22;2961;47.702;9.410;2023-12-07T00:08:56;1.00;99.90
5870;DHT22;2961;47.702;9.410;2023-12-07T00:11:23;1.00;99.90
5870;DHT22;2961;47.702;9.410;2023-12-07T00:13:50;1.00;99.90
5870;DHT22;2961;47.702;9.410;2023-12-07T00:16:17;1.00;99.90
5870;DHT22;2961;47.702;9.410;2023-12-07T00:18:44;0.90;99.90
5870;DHT22;2961;47.702;9.410;2023-12-07T00:21:11;1.00;99.90
5870;DHT22;2961;47.702;9.410;2023-12-07T00:23:39;0.90;99.90
5870;DHT22;2961;47.702;9.410;2023-12-07T00:26:06;1.00;99.90
5870;DHT22;2961;47.702;9.410;2023-12-07T00:28:32;1.00;99.90
5870;DHT22;2961;47.702;9.410;2023-12-07T00:30:59;1.00;99.90
5870;DHT22;2961;47.702;9.410;2023-12-07T00:33:27;1.00;99.90
5870;DHT22;2961;47.702;9.410;2023-12-07T00:35:54;0.90;99.90
5870;DHT22;2961;47.702;9.410;2023-12-07T00:38:21;0.90;99.90
5870;DHT22;2961;47.702;9.410;2023-12-07T00:40:49;0.90;99.90
5870;DHT22;2961;47.702;9.410;2023-12-07T00:43:15;0.90;99.90
5870;DHT22;2961;47.702;9.410;2023-12-07T00:45:43;0.90;99.90
5870;DHT22;2961;47.702;9.410;2023-12-07T00:48:10;0.90;99.90
5870;DHT22;2961;47.702;9.410;2023-12-07T00:50:37;0.90;99.90
5870;DHT22;2961;47.702;9.410;2023-12-07T00:53:04;0.80;99.90
5870;DHT22;2961;47.702;9.410;2023-12-07T00:55:31;0.80;99.90
5870;DHT22;2961;47.702;9.410;2023-12-07T00:57:59;0.80;99.90
5870;DHT22;2961;47.702;9.410;2023-12-07T01:00:27;0.80;99.90
5870;DHT22;2961;47.702;9.410;2023-12-07T01:02:53;0.80;99.90
5870;DHT22;2961;47.702;9.410;2023-12-07T01:05:20;0.70;99.90
5870;DHT22;2961;47.702;9.410;2023-12-07T01:07:47;0.80;99.90
5870;DHT22;2961;47.702;9.410;2023-12-07T01:10:14;0.80;99.90
5870;DHT22;2961;47.702;9.410;2023-12-07T01:12:41;0.80;99.90
5870;DHT22;2961;47.702;9.410;2023-12-07T01:15:09;0.80;99.90
5870;DHT22;2961;47.702;9.410;2023-12-07T01:17:36;0.70;99.90
5870;DHT22;2961;47.702;9.410;2023-12-07T01:20:04;0.60;99.90
5870;DHT22;2961;47.702;9.410;2023-12-07T01:22:32;0.60;99.90
5870;DHT22;2961;47.702;9.410;2023-12-07T01:24:59;0.50;99.90
5870;DHT22;2961;47.702;9.410;2023-12-07T01:27:26;0.50;99.90
5870;DHT22;2961;47.702;9.410;2023-12-07T01:29:53;0.40;99.90
5870;DHT22;2961;47.702;9.410;2023-12-07T01:32:21;0.30;99.90
5870;DHT22;2961;47.702;9.410;2023-12-07T01:34:48;0.20;99.90
5870;DHT22;2961;47.702;9.410;2023-12-07T01:37:15;0.10;99.90
5870;DHT22;2961;47.702;9.410;2023-12-07T01:39:42;0.10;99.90
5870;DHT22;2961;47.702;9.410;2023-12-07T01:42:10;0.00;99.90
5870;DHT22;2961;47.702;9.410;2023-12-07T01:44:37;-0.10;99.90
5870;DHT22;2961;47.702;9.410;2023-12-07T01:47:04;-0.10;99.90
5870;DHT22;2961;47.702;9.410;2023-12-07T01:49:35;-0.10;99.90
5870;DHT22;2961;47.702;9.410;2023-12-07T01:52:02;0.00;99.90
5870;DHT22;2961;47.702;9.410;2023-12-07T01:54:29;0.00;99.90
5870;DHT22;2961;47.702;9.410;2023-12-07T01:56:56;0.10;99.90
5870;DHT22;2961;47.702;9.410;2023-12-07T01:59:23;0.10;99.90
5870;DHT22;2961;47.702;9.410;2023-12-07T02:01:50;0.20;99.90
5870;DHT22;2961;47.702;9.410;2023-12-07T02:04:17;0.30;99.90
5870;DHT22;2961;47.702;9.410;2023-12-07T02:06:46;0.40;99.90
5870;DHT22;2961;47.702;9.410;2023-12-07T02:09:13;0.50;99.90
5870;DHT22;2961;47.702;9.410;2023-12-07T02:11:40;0.50;99.90
5870;DHT22;2961;47.702;9.410;2023-12-07T02:14:06;0.50;99.90
5870;DHT22;2961;47.702;9.410;2023-12-07T02:16:42;0.40;99.90
5870;DHT22;2961;47.702;9.410;2023-12-07T02:19:20;0.40;99.90
5870;DHT22;2961;47.702;9.410;2023-12-07T02:21:57;0.40;99.90
5870;DHT22;2961;47.702;9.410;2023-12-07T02:24:27;0.50;99.90
5870;DHT22;2961;47.702;9.410;2023-12-07T02:26:55;0.50;99.90
5870;DHT22;2961;47.702;9.410;2023-12-07T02:29:22;0.50;99.90
5870;DHT22;2961;47.702;9.410;2023-12-07T02:31:49;0.40;99.90
5870;DHT22;2961;47.702;9.410;2023-12-07T02:34:16;0.50;99.90
5870;DHT22;2961;47.702;9.410;2023-12-07T02:36:46;0.50;99.90
5870;DHT22;2961;47.702;9.410;2023-12-07T02:39:14;0.50;99.90
5870;DHT22;2961;47.702;9.410;2023-12-07T02:41:43;0.50;99.90
5870;DHT22;2961;47.702;9.410;2023-12-07T02:44:14;0.40;99.90
5870;DHT22;2961;47.702;9.410;2023-12-07T02:46:41;0.30;99.90
5870;DHT22;2961;47.702;9.410;2023-12-07T02:49:07;0.30;99.90
5870;DHT22;2961;47.702;9.410;2023-12-07T02:51:34;0.20;99.90
5870;DHT22;2961;47.702;9.410;2023-12-07T02:54:01;0.30;99.90
5870;DHT22;2961;47.702;9.410;2023-12-07T02:56:28;0.20;99.90
5870;DHT22;2961;47.702;9.410;2023-12-07T02:58:55;0.20;99.90
5870;DHT22;2961;47.702;9.410;2023-12-07T03:01:23;0.20;99.90
5870;DHT22;2961;47.702;9.410;2023-12-07T03:03:50;0.10;99.90
5870;DHT22;2961;47.702;9.410;2023-12-07T03:06:16;0.10;99.90
5870;DHT22;2961;47.702;9.410;2023-12-07T03:08:45;0.00;99.90
5870;DHT22;2961;47.702;9.410;2023-12-07T03:11:11;0.10;99.90
5870;DHT22;2961;47.702;9.410;2023-12-07T03:13:38;0.10;99.90
5870;DHT22;2961;47.702;9.410;2023-12-07T03:16:07;0.10;99.90
5870;DHT22;2961;47.702;9.410;2023-12-07T03:18:36;0.10;99.90
5870;DHT22;2961;47.702;9.410;2023-12-07T03:21:03;0.10;99.90
5870;DHT22;2961;47.702;9.410;2023-12-07T03:23:30;0.20;99.90
5870;DHT22;2961;47.702;9.410;2023-12-07T03:25:57;0.20;99.90
5870;DHT22;2961;47.702;9.410;2023-12-07T03:28:23;0.30;99.90
5870;DHT22;2961;47.702;9.410;2023-12-07T03:30:50;0.40;99.90
5870;DHT22;2961;47.702;9.410;2023-12-07T03:33:17;0.50;99.90
5870;DHT22;2961;47.702;9.410;2023-12-07T03:35:45;0.60;99.90
5870;DHT22;2961;47.702;9.410;2023-12-07T03:38:12;0.70;99.90
5870;DHT22;2961;47.702;9.410;2023-12-07T03:40:38;0.60;99.90
5870;DHT22;2961;47.702;9.410;2023-12-07T03:43:05;0.60;99.90
5870;DHT22;2961;47.702;9.410;2023-12-07T03:45:32;0.60;99.90
5870;DHT22;2961;47.702;9.410;2023-12-07T03:47:59;0.60;99.90
5870;DHT22;2961;47.702;9.410;2023-12-07T03:50:25;0.60;99.90
5870;DHT22;2961;47.702;9.410;2023-12-07T03:52:53;0.60;99.90
5870;DHT22;2961;47.702;9.410;2023-12-07T03:55:20;0.60;99.90
5870;DHT22;2961;47.702;9.410;2023-12-07T03:57:47;0.50;99.90
5870;DHT22;2961;47.702;9.410;2023-12-07T04:00:14;0.50;99.90
5870;DHT22;2961;47.702;9.410;2023-12-07T04:02:41;0.50;99.90
5870;DHT22;2961;47.702;9.410;2023-12-07T04:05:08;0.50;99.90
5870;DHT22;2961;47.702;9.410;2023-12-07T04:07:34;0.50;99.90
5870;DHT22;2961;47.702;9.410;2023-12-07T04:10:03;0.50;99.90
5870;DHT22;2961;47.702;9.410;2023-12-07T04:12:31;0.50;99.90
5870;DHT22;2961;47.702;9.410;2023-12-07T04:14:58;0.50;99.90
5870;DHT22;2961;47.702;9.410;2023-12-07T04:17:25;0.50;99.90
5870;DHT22;2961;47.702;9.410;2023-12-07T04:19:52;0.50;99.90
5870;DHT22;2961;47.702;9.410;2023-12-07T04:22:19;0.50;99.90
5870;DHT22;2961;47.702;9.410;2023-12-07T04:24:46;0.50;99.90
5870;DHT22;2961;47.702;9.410;2023-12-07T04:27:14;0.50;99.90
5870;DHT22;2961;47.702;9.410;2023-12-07T04:29:41;0.50;99.90
5870;DHT22;2961;47.702;9.410;2023-12-07T04:32:08;0.50;99.90
5870;DHT22;2961;47.702;9.410;2023-12-07T04:34:34;0.40;99.90
5870;DHT22;2961;47.702;9.410;2023-12-07T04:37:01;0.40;99.90
5870;DHT22;2961;47.702;9.410;2023-12-07T04:39:28;0.40;99.90
5870;DHT22;2961;47.702;9.410;2023-12-07T04:41:55;0.40;99.90
5870;DHT22;2961;47.702;9.410;2023-12-07T04:44:23;0.50;99.90
5870;DHT22;2961;47.702;9.410;2023-12-07T04:46:51;0.50;99.90
5870;DHT22;2961;47.702;9.410;2023-12-07T04:49:18;0.50;99.90
5870;DHT22;2961;47.702;9.410;2023-12-07T04:51:45;0.40;99.90
5870;DHT22;2961;47.702;9.410;2023-12-07T04:54:12;0.40;99.90
5870;DHT22;2961;47.702;9.410;2023-12-07T04:56:40;0.40;99.90
5870;DHT22;2961;47.702;9.410;2023-12-07T04:59:07;0.30;99.90
5870;DHT22;2961;47.702;9.410;2023-12-07T05:01:35;0.30;99.90
5870;DHT22;2961;47.702;9.410;2023-12-07T05:04:03;0.30;99.90
5870;DHT22;2961;47.702;9.410;2023-12-07T05:06:30;0.30;99.90
5870;DHT22;2961;47.702;9.410;2023-12-07T05:08:57;0.30;99.90
5870;DHT22;2961;47.702;9.410;2023-12-07T05:11:26;0.20;99.90
5870;DHT22;2961;47.702;9.410;2023-12-07T05:13:53;0.10;99.90
5870;DHT22;2961;47.702;9.410;2023-12-07T05:16:20;-0.10;99.90
5870;DHT22;2961;47.702;9.410;2023-12-07T05:18:48;-0.20;99.90
5870;DHT22;2961;47.702;9.410;2023-12-07T05:21:15;0.00;99.90
5870;DHT22;2961;47.702;9.410;2023-12-07T05:23:42;0.20;99.90
5870;DHT22;2961;47.702;9.410;2023-12-07T05:26:09;0.30;99.90
5870;DHT22;2961;47.702;9.410;2023-12-07T05:28:36;0.40;99.90
5870;DHT22;2961;47.702;9.410;2023-12-07T05:31:04;0.30;99.90
5870;DHT22;2961;47.702;9.410;2023-12-07T05:33:30;0.40;99.90
5870;DHT22;2961;47.702;9.410;2023-12-07T05:35:58;0.40;99.90
5870;DHT22;2961;47.702;9.410;2023-12-07T05:38:26;0.40;99.90
5870;DHT22;2961;47.702;9.410;2023-12-07T05:40:52;0.40;99.90
5870;DHT22;2961;47.702;9.410;2023-12-07T05:43:19;0.40;99.90
5870;DHT22;2961;47.702;9.410;2023-12-07T05:45:46;0.40;99.90
5870;DHT22;2961;47.702;9.410;2023-12-07T05:48:13;0.40;99.90
5870;DHT22;2961;47.702;9.410;2023-12-07T05:50:39;0.40;99.90
5870;DHT22;2961;47.702;9.410;2023-12-07T05:53:08;0.40;99.90
5870;DHT22;2961;47.702;9.410;2023-12-07T05:55:36;0.40;99.90
5870;DHT22;2961;47.702;9.410;2023-12-07T05:58:03;0.40;99.90
5870;DHT22;2961;47.702;9.410;2023-12-07T06:00:30;0.30;99.90
5870;DHT22;2961;47.702;9.410;2023-12-07T06:02:57;0.20;99.90
5870;DHT22;2961;47.702;9.410;2023-12-07T06:05:25;-0.10;99.90
5870;DHT22;2961;47.702;9.410;2023-12-07T06:07:51;-0.10;99.90
5870;DHT22;2961;47.702;9.410;2023-12-07T06:10:21;-0.20;99.90
5870;DHT22;2961;47.702;9.410;2023-12-07T06:12:48;-0.20;99.90
5870;DHT22;2961;47.702;9.410;2023-12-07T06:15:15;-0.30;99.90
5870;DHT22;2961;47.702;9.410;2023-12-07T06:17:42;-0.40;99.90
5870;DHT22;2961;47.702;9.410;2023-12-07T06:20:09;-0.40;99.90
5870;DHT22;2961;47.702;9.410;2023-12-07T06:22:36;-0.30;99.90
5870;DHT22;2961;47.702;9.410;2023-12-07T06:25:04;-0.30;99.90
5870;DHT22;2961;47.702;9.410;2023-12-07T06:27:32;-0.40;99.90
5870;DHT22;2961;47.702;9.410;2023-12-07T06:29:59;-0.50;99.90
5870;DHT22;2961;47.702;9.410;2023-12-07T06:32:26;-0.60;99.90
5870;DHT22;2961;47.702;9.410;2023-12-07T06:34:53;-0.70;99.90
5870;DHT22;2961;47.702;9.410;2023-12-07T06:37:20;-0.70;99.90
5870;DHT22;2961;47.702;9.410;2023-12-07T06:39:46;-0.50;99.90
5870;DHT22;2961;47.702;9.410;2023-12-07T06:42:14;-0.50;99.90
5870;DHT22;2961;47.702;9.410;2023-12-07T06:44:43;-0.40;99.90
5870;DHT22;2961;47.702;9.410;2023-12-07T06:47:10;-0.30;99.90
5870;DHT22;2961;47.702;9.410;2023-12-07T06:49:36;-0.20;99.90
5870;DHT22;2961;47.702;9.410;2023-12-07T06:52:04;-0.10;99.90
5870;DHT22;2961;47.702;9.410;2023-12-07T06:54:30;-0.10;99.90
5870;DHT22;2961;47.702;9.410;2023-12-07T06:56:57;-0.10;99.90
5870;DHT22;2961;47.702;9.410;2023-12-07T06:59:24;-0.20;99.90
5870;DHT22;2961;47.702;9.410;2023-12-07T07:01:52;-0.20;99.90
5870;DHT22;2961;47.702;9.410;2023-12-07T07:04:19;-0.10;99.90
5870;DHT22;2961;47.702;9.410;2023-12-07T07:06:45;-0.10;99.90
5870;DHT22;2961;47.702;9.410;2023-12-07T07:09:12;-0.10;99.90
5870;DHT22;2961;47.702;9.410;2023-12-07T07:11:41;-0.20;99.90
5870;DHT22;2961;47.702;9.410;2023-12-07T07:14:08;-0.20;99.90
5870;DHT22;2961;47.702;9.410;2023-12-07T07:16:36;-0.20;99.90
5870;DHT22;2961;47.702;9.410;2023-12-07T07:19:04;-0.20;99.90
5870;DHT22;2961;47.702;9.410;2023-12-07T07:21:31;-0.20;99.90
5870;DHT22;2961;47.702;9.410;2023-12-07T07:23:58;-0.10;99.90
5870;DHT22;2961;47.702;9.410;2023-12-07T07:26:24;-0.10;99.90
5870;DHT22;2961;47.702;9.410;2023-12-07T07:28:52;-0.10;99.90
5870;DHT22;2961;47.702;9.410;2023-12-07T07:31:19;-0.20;99.90
5870;DHT22;2961;47.702;9.410;2023-12-07T07:33:46;-0.20;99.90
5870;DHT22;2961;47.702;9.410;2023-12-07T07:36:15;-0.20;99.90
5870;DHT22;2961;47.702;9.410;2023-12-07T07:38:42;-0.20;99.90
5870;DHT22;2961;47.702;9.410;2023-12-07T07:41:09;-0.20;99.90
5870;DHT22;2961;47.702;9.410;2023-12-07T07:43:36;-0.10;99.90
5870;DHT22;2961;47.702;9.410;2023-12-07T07:46:03;-0.10;99.90
5870;DHT22;2961;47.702;9.410;2023-12-07T07:48:30;-0.10;99.90
5870;DHT22;2961;47.702;9.410;2023-12-07T07:50:57;0.00;99.90
5870;DHT22;2961;47.702;9.410;2023-12-07T07:53:25;0.00;99.90
5870;DHT22;2961;47.702;9.410;2023-12-07T07:55:52;0.00;99.90
5870;DHT22;2961;47.702;9.410;2023-12-07T07:58:19;0.10;99.90
5870;DHT22;2961;47.702;9.410;2023-12-07T08:00:45;0.10;99.90
5870;DHT22;2961;47.702;9.410;2023-12-07T08:03:12;0.10;99.90
5870;DHT22;2961;47.702;9.410;2023-12-07T08:05:39;0.20;99.90
5870;DHT22;2961;47.702;9.410;2023-12-07T08:08:06;0.20;99.90
5870;DHT22;2961;47.702;9.410;2023-12-07T08:10:34;0.30;99.90
5870;DHT22;2961;47.702;9.410;2023-12-07T08:13:01;0.30;99.90
5870;DHT22;2961;47.702;9.410;2023-12-07T08:15:28;0.30;99.90
5870;DHT22;2961;47.702;9.410;2023-12-07T08:17:55;0.30;99.90
5870;DHT22;2961;47.702;9.410;2023-12-07T08:20:21;0.40;99.90
5870;DHT22;2961;47.702;9.410;2023-12-07T08:22:48;0.40;99.90
5870;DHT22;2961;47.702;9.410;2023-12-07T08:25:15;0.50;99.90
5870;DHT22;2961;47.702;9.410;2023-12-07T08:27:44;0.50;99.90
5870;DHT22;2961;47.702;9.410;2023-12-07T08:30:12;0.50;99.90
5870;DHT22;2961;47.702;9.410;2023-12-07T08:32:39;0.60;99.90
5870;DHT22;2961;47.702;9.410;2023-12-07T08:35:06;0.60;99.90
5870;DHT22;2961;47.702;9.410;2023-12-07T08:37:34;0.60;99.90
5870;DHT22;2961;47.702;9.410;2023-12-07T08:40:04;0.70;99.90
5870;DHT22;2961;47.702;9.410;2023-12-07T08:42:31;0.70;99.90
5870;DHT22;2961;47.702;9.410;2023-12-07T08:44:59;0.80;99.90
5870;DHT22;2961;47.702;9.410;2023-12-07T08:47:26;0.80;99.90
5870;DHT22;2961;47.702;9.410;2023-12-07T08:49:54;0.90;99.90
5870;DHT22;2961;47.702;9.410;2023-12-07T08:52:20;0.90;99.90
5870;DHT22;2961;47.702;9.410;2023-12-07T08:54:47;0.90;99.90
5870;DHT22;2961;47.702;9.410;2023-12-07T08:57:14;1.00;99.90
5870;DHT22;2961;47.702;9.410;2023-12-07T08:59:41;1.10;99.90
5870;DHT22;2961;47.702;9.410;2023-12-07T09:02:09;1.10;99.90
5870;DHT22;2961;47.702;9.410;2023-12-07T09:04:35;1.10;99.90
5870;DHT22;2961;47.702;9.410;2023-12-07T09:07:03;1.10;99.90
5870;DHT22;2961;47.702;9.410;2023-12-07T09:09:29;1.10;99.90
5870;DHT22;2961;47.702;9.410;2023-12-07T09:11:56;1.20;99.90
5870;DHT22;2961;47.702;9.410;2023-12-07T09:14:23;1.30;99.90
5870;DHT22;2961;47.702;9.410;2023-12-07T09:16:52;1.30;99.90
5870;DHT22;2961;47.702;9.410;2023-12-07T09:19:21;1.30;99.90
5870;DHT22;2961;47.702;9.410;2023-12-07T09:21:49;1.40;99.90
5870;DHT22;2961;47.702;9.410;2023-12-07T09:24:15;1.40;99.90
5870;DHT22;2961;47.702;9.410;2023-12-07T09:26:42;1.40;99.90
5870;DHT22;2961;47.702;9.410;2023-12-07T09:29:09;1.40;99.90
5870;DHT22;2961;47.702;9.410;2023-12-07T09:31:36;1.50;99.90
5870;DHT22;2961;47.702;9.410;2023-12-07T09:34:02;1.60;99.90
5870;DHT22;2961;47.702;9.410;2023-12-07T09:36:30;1.60;99.90
5870;DHT22;2961;47.702;9.410;2023-12-07T09:38:57;1.70;99.90
5870;DHT22;2961;47.702;9.410;2023-12-07T09:41:24;1.70;99.90
5870;DHT22;2961;47.702;9.410;2023-12-07T09:43:52;1.90;99.90
5870;DHT22;2961;47.702;9.410;2023-12-07T09:46:19;1.90;99.90
5870;DHT22;2961;47.702;9.410;2023-12-07T09:48:49;2.00;99.90
5870;DHT22;2961;47.702;9.410;2023-12-07T09:51:16;2.10;99.90
5870;DHT22;2961;47.702;9.410;2023-12-07T09:53:45;2.10;99.90
5870;DHT22;2961;47.702;9.410;2023-12-07T09:56:15;2.20;99.90
5870;DHT22;2961;47.702;9.410;2023-12-07T09:58:42;2.20;99.90
5870;DHT22;2961;47.702;9.410;2023-12-07T10:01:08;2.20;99.90
5870;DHT22;2961;47.702;9.410;2023-12-07T10:03:39;2.30;99.90
5870;DHT22;2961;47.702;9.410;2023-12-07T10:06:06;2.30;99.90
5870;DHT22;2961;47.702;9.410;2023-12-07T10:08:34;2.40;99.90
5870;DHT22;2961;47.702;9.410;2023-12-07T10:11:06;2.40;99.90
5870;DHT22;2961;47.702;9.410;2023-12-07T10:13:33;2.40;99.90
5870;DHT22;2961;47.702;9.410;2023-12-07T10:16:08;2.40;99.90
5870;DHT22;2961;47.702;9.410;2023-12-07T10:18:35;2.50;99.90
5870;DHT22;2961;47.702;9.410;2023-12-07T10:21:03;2.50;99.90
5870;DHT22;2961;47.702;9.410;2023-12-07T10:23:29;2.50;99.90
5870;DHT22;2961;47.702;9.410;2023-12-07T10:25:58;2.50;99.90
5870;DHT22;2961;47.702;9.410;2023-12-07T10:28:27;2.60;99.90
5870;DHT22;2961;47.702;9.410;2023-12-07T10:30:54;2.70;99.90
5870;DHT22;2961;47.702;9.410;2023-12-07T10:33:20;2.70;99.90
5870;DHT22;2961;47.702;9.410;2023-12-07T10:35:47;2.70;99.90
5870;DHT22;2961;47.702;9.410;2023-12-07T10:38:15;2.70;99.90
5870;DHT22;2961;47.702;9.410;2023-12-07T10:40:43;2.80;99.90
5870;DHT22;2961;47.702;9.410;2023-12-07T10:43:11;2.80;99.90
5870;DHT22;2961;47.702;9.410;2023-12-07T10:45:40;2.80;99.90
5870;DHT22;2961;47.702;9.410;2023-12-07T10:48:09;2.90;99.90
5870;DHT22;2961;47.702;9.410;2023-12-07T10:50:39;2.90;99.90
5870;DHT22;2961;47.702;9.410;2023-12-07T10:53:10;2.90;99.90
5870;DHT22;2961;47.702;9.410;2023-12-07T10:55:41;2.90;99.90
5870;DHT22;2961;47.702;9.410;2023-12-07T10:58:10;2.90;99.90
5870;DHT22;2961;47.702;9.410;2023-12-07T11:00:42;3.10;99.90
5870;DHT22;2961;47.702;9.410;2023-12-07T11:03:14;3.10;99.90
5870;DHT22;2961;47.702;9.410;2023-12-07T11:05:42;3.10;99.90
5870;DHT22;2961;47.702;9.410;2023-12-07T11:08:15;3.20;99.90
5870;DHT22;2961;47.702;9.410;2023-12-07T11:10:47;3.20;99.90
5870;DHT22;2961;47.702;9.410;2023-12-07T11:13:20;3.20;99.90
5870;DHT22;2961;47.702;9.410;2023-12-07T11:15:50;3.30;99.90
5870;DHT22;2961;47.702;9.410;2023-12-07T11:18:17;3.30;99.90
5870;DHT22;2961;47.702;9.410;2023-12-07T11:20:45;3.30;99.90
5870;DHT22;2961;47.702;9.410;2023-12-07T11:23:16;3.40;99.90
5870;DHT22;2961;47.702;9.410;2023-12-07T11:25:43;3.40;99.90
5870;DHT22;2961;47.702;9.410;2023-12-07T11:28:11;3.50;99.90
5870;DHT22;2961;47.702;9.410;2023-12-07T11:30:38;3.50;99.90
5870;DHT22;2961;47.702;9.410;2023-12-07T11:33:09;3.60;99.90
5870;DHT22;2961;47.702;9.410;2023-12-07T11:36:05;3.60;99.90
5870;DHT22;2961;47.702;9.410;2023-12-07T11:38:32;3.60;99.90
5870;DHT22;2961;47.702;9.410;2023-12-07T11:41:00;3.60;99.90
5870;DHT22;2961;47.702;9.410;2023-12-07T11:43:37;3.60;99.90
5870;DHT22;2961;47.702;9.410;2023-12-07T11:46:09;3.60;99.90
5870;DHT22;2961;47.702;9.410;2023-12-07T11:48:38;3.60;99.90
5870;DHT22;2961;47.702;9.410;2023-12-07T11:51:05;3.70;99.90
5870;DHT22;2961;47.702;9.410;2023-12-07T11:53:34;3.80;99.90
5870;DHT22;2961;47.702;9.410;2023-12-07T11:56:03;3.80;99.90
5870;DHT22;2961;47.702;9.410;2023-12-07T11:58:31;3.80;99.90
5870;DHT22;2961;47.702;9.410;2023-12-07T12:00:58;3.90;99.90
5870;DHT22;2961;47.702;9.410;2023-12-07T12:03:25;3.90;99.90
5870;DHT22;2961;47.702;9.410;2023-12-07T12:05:54;3.80;99.90
5870;DHT22;2961;47.702;9.410;2023-12-07T12:08:21;3.80;99.90
5870;DHT22;2961;47.702;9.410;2023-12-07T12:10:50;3.90;99.90
5870;DHT22;2961;47.702;9.410;2023-12-07T12:13:18;4.00;99.90
5870;DHT22;2961;47.702;9.410;2023-12-07T12:15:45;4.10;99.90
5870;DHT22;2961;47.702;9.410;2023-12-07T12:18:13;4.20;99.90
5870;DHT22;2961;47.702;9.410;2023-12-07T12:20:41;4.20;99.90
5870;DHT22;2961;47.702;9.410;2023-12-07T12:23:12;4.20;99.90
5870;DHT22;2961;47.702;9.410;2023-12-07T12:25:39;4.20;99.90
5870;DHT22;2961;47.702;9.410;2023-12-07T12:28:07;4.30;99.90
5870;DHT22;2961;47.702;9.410;2023-12-07T12:30:34;4.40;99.90
5870;DHT22;2961;47.702;9.410;2023-12-07T12:33:02;4.40;99.90
5870;DHT22;2961;47.702;9.410;2023-12-07T12:35:29;4.30;99.90
5870;DHT22;2961;47.702;9.410;2023-12-07T12:37:56;4.30;99.90
5870;DHT22;2961;47.702;9.410;2023-12-07T12:40:27;4.40;99.90
5870;DHT22;2961;47.702;9.410;2023-12-07T12:42:54;4.40;99.90
5870;DHT22;2961;47.702;9.410;2023-12-07T12:45:22;4.40;99.90
5870;DHT22;2961;47.702;9.410;2023-12-07T12:47:48;4.30;99.90
5870;DHT22;2961;47.702;9.410;2023-12-07T12:50:33;4.30;99.90
5870;DHT22;2961;47.702;9.410;2023-12-07T12:53:03;4.30;99.90
5870;DHT22;2961;47.702;9.410;2023-12-07T12:55:33;4.30;99.90
5870;DHT22;2961;47.702;9.410;2023-12-07T12:58:00;4.30;99.90
5870;DHT22;2961;47.702;9.410;2023-12-07T13:00:29;4.30;99.90
5870;DHT22;2961;47.702;9.410;2023-12-07T13:02:56;4.20;99.90
5870;DHT22;2961;47.702;9.410;2023-12-07T13:05:23;4.30;99.90
5870;DHT22;2961;47.702;9.410;2023-12-07T13:07:50;4.30;99.90
5870;DHT22;2961;47.702;9.410;2023-12-07T13:10:16;4.40;99.90
5870;DHT22;2961;47.702;9.410;2023-12-07T13:12:45;4.40;99.90
5870;DHT22;2961;47.702;9.410;2023-12-07T13:15:12;4.60;99.90
5870;DHT22;2961;47.702;9.410;2023-12-07T13:17:39;4.50;99.90
5870;DHT22;2961;47.702;9.410;2023-12-07T13:20:07;4.50;99.90
5870;DHT22;2961;47.702;9.410;2023-12-07T13:22:35;4.40;99.90
5870;DHT22;2961;47.702;9.410;2023-12-07T13:25:03;4.40;99.90
5870;DHT22;2961;47.702;9.410;2023-12-07T13:27:31;4.30;99.90
5870;DHT22;2961;47.702;9.410;2023-12-07T13:29:59;4.30;99.90
5870;DHT22;2961;47.702;9.410;2023-12-07T13:32:26;4.20;99.90
5870;DHT22;2961;47.702;9.410;2023-12-07T13:34:53;4.20;99.90
5870;DHT22;2961;47.702;9.410;2023-12-07T13:37:20;4.10;99.90
5870;DHT22;2961;47.702;9.410;2023-12-07T13:39:47;4.20;99.90
5870;DHT22;2961;47.702;9.410;2023-12-07T13:42:18;4.20;99.90
5870;DHT22;2961;47.702;9.410;2023-12-07T13:44:45;4.30;99.90
5870;DHT22;2961;47.702;9.410;2023-12-07T13:47:17;4.30;99.90
5870;DHT22;2961;47.702;9.410;2023-12-07T13:49:45;4.20;99.90
5870;DHT22;2961;47.702;9.410;2023-12-07T13:52:14;4.30;99.90
5870;DHT22;2961;47.702;9.410;2023-12-07T13:54:43;4.20;99.90
5870;DHT22;2961;47.702;9.410;2023-12-07T13:57:10;4.20;99.90
5870;DHT22;2961;47.702;9.410;2023-12-07T13:59:38;4.20;99.90
5870;DHT22;2961;47.702;9.410;2023-12-07T14:02:06;4.30;99.90
5870;DHT22;2961;47.702;9.410;2023-12-07T14:04:34;4.30;99.90
5870;DHT22;2961;47.702;9.410;2023-12-07T14:07:08;4.30;99.90
5870;DHT22;2961;47.702;9.410;2023-12-07T14:09:35;4.30;99.90
5870;DHT22;2961;47.702;9.410;2023-12-07T14:12:02;4.30;99.90
5870;DHT22;2961;47.702;9.410;2023-12-07T14:14:29;4.30;99.90
5870;DHT22;2961;47.702;9.410;2023-12-07T14:16:56;4.30;99.90
5870;DHT22;2961;47.702;9.410;2023-12-07T14:19:23;4.30;99.90
5870;DHT22;2961;47.702;9.410;2023-12-07T14:21:51;4.20;99.90
5870;DHT22;2961;47.702;9.410;2023-12-07T14:24:18;4.20;99.90
5870;DHT22;2961;47.702;9.410;2023-12-07T14:26:45;4.20;99.90
5870;DHT22;2961;47.702;9.410;2023-12-07T14:29:12;4.10;99.90
5870;DHT22;2961;47.702;9.410;2023-12-07T14:31:40;4.10;99.90
5870;DHT22;2961;47.702;9.410;2023-12-07T14:34:07;4.00;99.90
5870;DHT22;2961;47.702;9.410;2023-12-07T14:36:34;3.80;99.90
5870;DHT22;2961;47.702;9.410;2023-12-07T14:39:03;3.70;99.90
5870;DHT22;2961;47.702;9.410;2023-12-07T14:41:32;3.70;99.90
5870;DHT22;2961;47.702;9.410;2023-12-07T14:43:58;3.70;99.90
5870;DHT22;2961;47.702;9.410;2023-12-07T14:46:25;3.70;99.90
5870;DHT22;2961;47.702;9.410;2023-12-07T14:48:52;3.60;99.90
5870;DHT22;2961;47.702;9.410;2023-12-07T14:51:19;3.50;99.90
5870;DHT22;2961;47.702;9.410;2023-12-07T14:53:46;3.50;99.90
5870;DHT22;2961;47.702;9.410;2023-12-07T14:56:14;3.50;99.90
5870;DHT22;2961;47.702;9.410;2023-12-07T14:58:41;3.30;99.90
5870;DHT22;2961;47.702;9.410;2023-12-07T15:01:08;3.30;99.90
5870;DHT22;2961;47.702;9.410;2023-12-07T15:03:35;3.20;99.90
5870;DHT22;2961;47.702;9.410;2023-12-07T15:06:02;3.20;99.90
5870;DHT22;2961;47.702;9.410;2023-12-07T15:08:28;3.20;99.90
5870;DHT22;2961;47.702;9.410;2023-12-07T15:10:55;3.10;99.90
5870;DHT22;2961;47.702;9.410;2023-12-07T15:13:23;3.00;99.90
5870;DHT22;2961;47.702;9.410;2023-12-07T15:15:50;2.80;99.90
5870;DHT22;2961;47.702;9.410;2023-12-07T15:18:17;2.80;99.90
5870;DHT22;2961;47.702;9.410;2023-12-07T15:20:43;2.90;99.90
5870;DHT22;2961;47.702;9.410;2023-12-07T15:23:10;2.90;99.90
5870;DHT22;2961;47.702;9.410;2023-12-07T15:25:37;2.90;99.90
5870;DHT22;2961;47.702;9.410;2023-12-07T15:28:04;2.70;99.90
5870;DHT22;2961;47.702;9.410;2023-12-07T15:30:32;2.70;99.90
5870;DHT22;2961;47.702;9.410;2023-12-07T15:33:00;2.70;99.90
5870;DHT22;2961;47.702;9.410;2023-12-07T15:35:27;2.70;99.90
5870;DHT22;2961;47.702;9.410;2023-12-07T15:37:54;2.70;99.90
5870;DHT22;2961;47.702;9.410;2023-12-07T15:40:21;2.60;99.90
5870;DHT22;2961;47.702;9.410;2023-12-07T15:42:48;2.60;99.90
5870;DHT22;2961;47.702;9.410;2023-12-07T15:45:14;2.60;99.90
5870;DHT22;2961;47.702;9.410;2023-12-07T15:47:42;2.50;99.90
5870;DHT22;2961;47.702;9.410;2023-12-07T15:50:09;2.40;99.90
5870;DHT22;2961;47.702;9.410;2023-12-07T15:52:37;2.20;99.90
5870;DHT22;2961;47.702;9.410;2023-12-07T15:55:04;2.20;99.90
5870;DHT22;2961;47.702;9.410;2023-12-07T15:57:32;2.10;99.90
5870;DHT22;2961;47.702;9.410;2023-12-07T15:59:59;2.10;99.90
5870;DHT22;2961;47.702;9.410;2023-12-07T16:02:25;2.10;99.90
5870;DHT22;2961;47.702;9.410;2023-12-07T16:04:54;2.10;99.90
5870;DHT22;2961;47.702;9.410;2023-12-07T16:07:21;2.10;99.90
5870;DHT22;2961;47.702;9.410;2023-12-07T16:09:48;2.10;99.90
5870;DHT22;2961;47.702;9.410;2023-12-07T16:12:15;2.10;99.90
5870;DHT22;2961;47.702;9.410;2023-12-07T16:14:42;2.10;99.90
5870;DHT22;2961;47.702;9.410;2023-12-07T16:17:10;2.00;99.90
5870;DHT22;2961;47.702;9.410;2023-12-07T16:19:37;2.00;99.90